createdAt,value
2022-12-09T00:00:46.107Z,14.13
2022-12-09T00:01:49.822Z,14.17
2022-12-09T00:02:52.390Z,14.16
2022-12-09T00:03:57.112Z,14.20
2022-12-09T00:04:59.584Z,14.20
2022-12-09T00:06:08.124Z,14.17
2022-12-09T00:07:11.735Z,14.24
2022-12-09T00:08:14.322Z,14.19
2022-12-09T00:09:18.188Z,14.06
2022-12-09T00:10:22.380Z,14.18
2022-12-09T00:11:26.808Z,14.11
2022-12-09T00:12:29.109Z,14.13
2022-12-09T00:13:32.469Z,14.14
2022-12-09T00:14:35.042Z,14.08
2022-12-09T00:15:42.112Z,14.08
2022-12-09T00:16:45.664Z,14.10
2022-12-09T00:17:48.596Z,14.03
2022-12-09T00:18:52.475Z,14.14
2022-12-09T00:19:54.824Z,14.18
2022-12-09T00:20:58.272Z,14.20
2022-12-09T00:22:00.793Z,14.09
2022-12-09T00:23:04.458Z,14.06
2022-12-09T00:24:08.505Z,13.99
2022-12-09T00:25:12.043Z,14.02
2022-12-09T00:26:16.731Z,13.98
2022-12-09T00:27:20.128Z,14.02
2022-12-09T00:28:22.361Z,14.05
2022-12-09T00:29:25.689Z,14.08
2022-12-09T00:30:28.165Z,14.08
2022-12-09T00:31:34.203Z,14.04
2022-12-09T00:32:37.937Z,14.11
2022-12-09T00:33:40.869Z,14.09
2022-12-09T00:34:44.782Z,14.08
2022-12-09T00:35:47.133Z,14.21
2022-12-09T00:36:51.001Z,14.23
2022-12-09T00:37:53.214Z,14.27
2022-12-09T00:38:58.553Z,14.22
2022-12-09T00:40:02.183Z,14.15
2022-12-09T00:41:06.062Z,14.02
2022-12-09T00:42:10.826Z,14.01
2022-12-09T00:43:13.239Z,13.96
2022-12-09T00:44:16.678Z,14.01
2022-12-09T00:45:19.233Z,14.00
2022-12-09T00:46:22.963Z,13.94
2022-12-09T00:47:26.592Z,13.97
2022-12-09T00:48:29.364Z,14.00
2022-12-09T00:49:32.727Z,13.97
2022-12-09T00:50:34.973Z,13.90
2022-12-09T00:51:38.271Z,13.86
2022-12-09T00:52:40.836Z,13.81
2022-12-09T00:53:44.908Z,13.82
2022-12-09T00:54:48.325Z,13.78
2022-12-09T00:55:51.198Z,13.76
2022-12-09T00:56:54.588Z,13.75
2022-12-09T00:57:58.425Z,13.75
2022-12-09T00:59:01.907Z,13.74
2022-12-09T01:00:05.974Z,13.70
2022-12-09T01:01:10.104Z,13.72
2022-12-09T01:02:12.455Z,13.73
2022-12-09T01:03:16.986Z,13.72
2022-12-09T01:04:19.960Z,13.72
2022-12-09T01:05:23.705Z,13.70
2022-12-09T01:06:27.107Z,13.73
2022-12-09T01:07:31.021Z,13.69
2022-12-09T01:08:35.967Z,13.74
2022-12-09T01:09:41.858Z,13.69
2022-12-09T01:10:45.536Z,13.73
2022-12-09T01:11:49.033Z,13.73
2022-12-09T01:12:51.256Z,13.73
2022-12-09T01:13:58.328Z,13.71
2022-12-09T01:15:01.046Z,13.69
2022-12-09T01:16:04.734Z,13.65
2022-12-09T01:17:08.688Z,13.68
2022-12-09T01:18:11.628Z,13.68
2022-12-09T01:19:15.650Z,13.70
2022-12-09T01:20:18.220Z,13.72
2022-12-09T01:21:21.485Z,13.72
2022-12-09T01:22:24.337Z,13.73
2022-12-09T01:23:28.445Z,13.70
2022-12-09T01:24:31.929Z,13.69
2022-12-09T01:25:34.398Z,13.73
2022-12-09T01:26:39.158Z,13.73
2022-12-09T01:27:41.907Z,13.74
2022-12-09T01:28:45.587Z,13.74
2022-12-09T01:29:50.534Z,13.74
2022-12-09T01:30:53.060Z,13.73
2022-12-09T01:31:56.616Z,13.72
2022-12-09T01:32:58.971Z,13.76
2022-12-09T01:34:02.300Z,13.79
2022-12-09T01:35:05.227Z,13.77
2022-12-09T01:36:12.386Z,13.78
2022-12-09T01:37:14.857Z,13.76
2022-12-09T01:38:18.270Z,13.76
2022-12-09T01:39:21.827Z,13.77
2022-12-09T01:40:25.146Z,13.77
2022-12-09T01:41:29.470Z,13.77
2022-12-09T01:42:34.443Z,13.79
2022-12-09T01:43:38.955Z,13.81
2022-12-09T01:45:14.515Z,13.83
2022-12-09T01:46:19.353Z,13.86
2022-12-09T01:47:22.901Z,13.81
2022-12-09T01:48:29.399Z,13.85
2022-12-09T01:49:34.570Z,13.82
2022-12-09T01:50:40.948Z,13.84
2022-12-09T01:51:47.891Z,13.86
2022-12-09T01:52:51.848Z,13.90
2022-12-09T01:53:54.579Z,13.93
2022-12-09T01:54:57.875Z,13.92
2022-12-09T01:56:06.003Z,13.93
2022-12-09T01:57:10.096Z,13.94
2022-12-09T01:58:13.197Z,13.94
2022-12-09T01:59:17.707Z,13.95
2022-12-09T02:00:21.572Z,14.00
2022-12-09T02:01:26.522Z,14.01
2022-12-09T02:02:30.816Z,14.05
2022-12-09T02:03:35.214Z,14.08
2022-12-09T02:04:41.930Z,14.08
2022-12-09T02:05:46.329Z,14.08
2022-12-09T02:06:48.923Z,14.11
2022-12-09T02:07:52.844Z,14.11
2022-12-09T02:08:56.272Z,14.08
2022-12-09T02:09:59.971Z,14.09
2022-12-09T02:11:11.927Z,14.10
2022-12-09T02:12:20.520Z,14.08
2022-12-09T02:13:29.891Z,14.11
2022-12-09T02:14:41.396Z,14.08
2022-12-09T02:15:48.240Z,14.06
2022-12-09T02:17:01.273Z,14.04
2022-12-09T02:18:11.551Z,14.04
2022-12-09T02:19:28.152Z,14.02
2022-12-09T02:20:38.907Z,14.03
2022-12-09T02:21:50.461Z,14.00
2022-12-09T02:23:01.143Z,14.01
2022-12-09T02:24:10.213Z,14.01
2022-12-09T02:25:23.134Z,14.01
2022-12-09T02:26:31.707Z,13.99
2022-12-09T02:27:40.329Z,14.00
2022-12-09T02:29:23.092Z,14.03
2022-12-09T02:30:33.651Z,14.05
2022-12-09T02:31:55.813Z,14.09
2022-12-09T02:33:20.055Z,14.08
2022-12-09T02:34:30.057Z,14.05
2022-12-09T02:35:37.692Z,14.05
2022-12-09T02:36:49.350Z,14.04
2022-12-09T02:37:57.659Z,14.08
2022-12-09T02:39:01.718Z,14.09
2022-12-09T02:40:09.731Z,14.08
2022-12-09T02:41:17.841Z,14.14
2022-12-09T02:42:24.681Z,14.11
2022-12-09T02:43:31.685Z,14.16
2022-12-09T02:44:36.519Z,14.16
2022-12-09T02:45:42.464Z,14.18
2022-12-09T02:46:46.495Z,14.17
2022-12-09T02:47:52.786Z,14.23
2022-12-09T02:48:57.223Z,14.28
2022-12-09T02:50:05.723Z,14.26
2022-12-09T02:51:12.599Z,14.24
2022-12-09T02:52:17.194Z,14.26
2022-12-09T02:53:20.264Z,14.25
2022-12-09T02:54:26.321Z,14.27
2022-12-09T02:55:32.818Z,14.27
2022-12-09T02:56:37.261Z,14.28
2022-12-09T02:57:40.648Z,14.29
2022-12-09T02:58:44.087Z,14.26
2022-12-09T02:59:46.912Z,14.26
2022-12-09T03:00:52.249Z,14.25
2022-12-09T03:02:06.510Z,14.20
2022-12-09T03:03:16.713Z,14.19
2022-12-09T03:04:24.771Z,14.24
2022-12-09T03:05:38.820Z,14.27
2022-12-09T03:06:46.980Z,14.27
2022-12-09T03:08:01.188Z,14.26
2022-12-09T03:09:10.314Z,14.27
2022-12-09T03:10:19.706Z,14.28
2022-12-09T03:11:24.957Z,14.29
2022-12-09T03:12:32.676Z,14.28
2022-12-09T03:13:46.225Z,14.29
2022-12-09T03:14:54.505Z,14.29
2022-12-09T03:16:04.357Z,14.25
2022-12-09T03:17:14.148Z,14.27
2022-12-09T03:18:20.799Z,14.28
2022-12-09T03:19:29.292Z,14.26
2022-12-09T03:20:36.621Z,14.30
2022-12-09T03:21:44.066Z,14.29
2022-12-09T03:22:48.304Z,14.31
2022-12-09T03:23:54.942Z,14.31
2022-12-09T03:25:02.965Z,14.34
2022-12-09T03:26:07.416Z,14.33
2022-12-09T03:27:16.957Z,14.31
2022-12-09T03:28:23.230Z,14.32
2022-12-09T03:29:30.382Z,14.27
2022-12-09T03:30:36.135Z,14.28
2022-12-09T03:31:41.166Z,14.24
2022-12-09T03:32:45.258Z,14.18
2022-12-09T03:33:53.765Z,14.15
2022-12-09T03:35:03.401Z,14.04
2022-12-09T03:36:12.570Z,14.02
2022-12-09T03:37:18.241Z,13.98
2022-12-09T03:38:24.218Z,13.99
2022-12-09T03:39:30.837Z,13.98
2022-12-09T03:40:35.440Z,13.97
2022-12-09T03:41:44.358Z,13.93
2022-12-09T03:42:52.687Z,13.90
2022-12-09T03:43:59.217Z,13.91
2022-12-09T03:45:06.978Z,13.90
2022-12-09T03:46:09.592Z,13.89
2022-12-09T03:47:13.642Z,13.90
2022-12-09T03:48:16.569Z,13.91
2022-12-09T03:49:20.191Z,13.90
2022-12-09T03:50:25.368Z,13.92
2022-12-09T03:51:36.362Z,13.86
2022-12-09T03:52:44.302Z,13.88
2022-12-09T03:53:51.637Z,13.87
2022-12-09T03:54:58.288Z,13.90
2022-12-09T03:56:09.030Z,13.91
2022-12-09T03:57:18.775Z,13.91
2022-12-09T03:58:22.863Z,13.91
2022-12-09T03:59:31.305Z,13.91
2022-12-09T04:00:37.590Z,13.90
2022-12-09T04:01:41.125Z,13.92
2022-12-09T04:02:44.704Z,13.88
2022-12-09T04:03:50.130Z,13.87
2022-12-09T04:04:53.466Z,13.89
2022-12-09T04:05:55.897Z,13.88
2022-12-09T04:07:01.074Z,13.85
2022-12-09T04:08:03.865Z,13.87
2022-12-09T04:09:08.238Z,13.86
2022-12-09T04:10:12.085Z,13.86
2022-12-09T04:11:15.989Z,13.83
2022-12-09T04:12:18.823Z,13.83
2022-12-09T04:13:22.509Z,13.83
2022-12-09T04:14:25.015Z,13.81
2022-12-09T04:15:28.696Z,13.80
2022-12-09T04:16:31.222Z,13.81
2022-12-09T04:17:35.102Z,13.81
2022-12-09T04:18:37.555Z,13.84
2022-12-09T04:19:41.166Z,13.82
2022-12-09T04:20:44.062Z,13.86
2022-12-09T04:21:47.673Z,13.92
2022-12-09T04:22:51.671Z,13.91
2022-12-09T04:23:55.076Z,13.93
2022-12-09T04:24:57.927Z,13.97
2022-12-09T04:26:01.387Z,14.02
2022-12-09T04:27:04.203Z,14.03
2022-12-09T04:28:07.612Z,14.01
2022-12-09T04:29:10.674Z,14.03
2022-12-09T04:30:14.671Z,14.02
2022-12-09T04:31:19.038Z,14.01
2022-12-09T04:32:22.467Z,13.99
2022-12-09T04:33:25.344Z,14.00
2022-12-09T04:34:29.062Z,14.00
2022-12-09T04:35:31.343Z,14.02
2022-12-09T04:36:34.839Z,13.99
2022-12-09T04:37:37.948Z,13.95
2022-12-09T04:38:43.571Z,13.95
2022-12-09T04:39:46.186Z,13.92
2022-12-09T04:40:49.669Z,13.92
2022-12-09T04:41:52.154Z,13.91
2022-12-09T04:42:57.201Z,13.93
2022-12-09T04:43:59.390Z,13.90
2022-12-09T04:45:03.057Z,13.91
2022-12-09T04:46:07.294Z,13.90
2022-12-09T04:47:11.424Z,13.91
2022-12-09T04:48:14.036Z,13.87
2022-12-09T04:49:17.323Z,13.86
2022-12-09T04:50:19.667Z,13.86
2022-12-09T04:51:23.074Z,13.87
2022-12-09T04:52:25.344Z,13.86
2022-12-09T04:53:29.285Z,13.85
2022-12-09T04:54:33.970Z,13.85
2022-12-09T04:55:37.759Z,13.81
2022-12-09T04:56:40.431Z,13.82
2022-12-09T04:57:43.721Z,13.80
2022-12-09T04:58:46.411Z,13.78
2022-12-09T04:59:49.745Z,13.77
2022-12-09T05:00:52.160Z,13.74
2022-12-09T05:01:56.134Z,13.73
2022-12-09T05:02:58.901Z,13.69
2022-12-09T05:04:03.182Z,13.70
2022-12-09T05:05:07.137Z,13.68
2022-12-09T05:06:14.319Z,13.68
2022-12-09T05:07:17.087Z,13.68
2022-12-09T05:08:20.640Z,13.66
2022-12-09T05:09:23.775Z,13.65
2022-12-09T05:10:29.386Z,13.65
2022-12-09T05:11:32.162Z,13.65
2022-12-09T05:12:35.652Z,13.68
2022-12-09T05:13:38.164Z,13.64
2022-12-09T05:14:41.692Z,13.64
2022-12-09T05:15:44.394Z,13.69
2022-12-09T05:16:48.181Z,13.66
2022-12-09T05:17:50.771Z,13.64
2022-12-09T05:18:54.706Z,13.65
2022-12-09T05:19:57.444Z,13.62
2022-12-09T05:21:01.718Z,13.64
2022-12-09T05:22:04.068Z,13.65
2022-12-09T05:23:09.845Z,13.63
2022-12-09T05:24:13.092Z,13.58
2022-12-09T05:25:16.889Z,13.57
2022-12-09T05:26:22.282Z,13.53
2022-12-09T05:27:26.045Z,13.54
2022-12-09T05:28:28.507Z,13.55
2022-12-09T05:29:32.042Z,13.56
2022-12-09T05:30:34.712Z,13.57
2022-12-09T05:31:38.434Z,13.59
2022-12-09T05:32:41.340Z,13.61
2022-12-09T05:33:44.935Z,13.61
2022-12-09T05:34:48.617Z,13.61
2022-12-09T05:35:53.470Z,13.61
2022-12-09T05:36:57.297Z,13.64
2022-12-09T05:38:00.027Z,13.63
2022-12-09T05:39:03.341Z,13.67
2022-12-09T05:40:07.604Z,13.67
2022-12-09T05:41:11.376Z,13.66
2022-12-09T05:42:17.207Z,13.68
2022-12-09T05:43:19.962Z,13.67
2022-12-09T05:44:23.810Z,13.67
2022-12-09T05:45:26.315Z,13.64
2022-12-09T05:46:30.221Z,13.66
2022-12-09T05:47:33.264Z,13.66
2022-12-09T05:48:37.438Z,13.64
2022-12-09T05:49:39.925Z,13.67
2022-12-09T05:50:43.388Z,13.64
2022-12-09T05:51:45.625Z,13.65
2022-12-09T05:52:49.508Z,13.68
2022-12-09T05:53:52.881Z,13.64
2022-12-09T05:54:56.798Z,13.63
2022-12-09T05:55:59.257Z,13.58
2022-12-09T05:57:04.441Z,13.59
2022-12-09T05:58:08.582Z,13.58
2022-12-09T05:59:12.225Z,13.59
2022-12-09T06:00:15.947Z,13.55
2022-12-09T06:01:20.808Z,13.55
2022-12-09T06:02:23.461Z,13.54
2022-12-09T06:03:27.271Z,13.55
2022-12-09T06:04:29.947Z,13.52
2022-12-09T06:05:33.624Z,13.55
2022-12-09T06:06:36.189Z,13.54
2022-12-09T06:07:40.660Z,13.59
2022-12-09T06:08:44.464Z,13.61
2022-12-09T06:09:48.256Z,13.62
2022-12-09T06:10:51.572Z,13.62
2022-12-09T06:11:55.263Z,13.61
2022-12-09T06:12:57.813Z,13.64
2022-12-09T06:14:02.904Z,13.65
2022-12-09T06:15:10.429Z,13.58
2022-12-09T06:16:16.076Z,13.56
2022-12-09T06:17:18.702Z,13.60
2022-12-09T06:18:22.226Z,13.62
2022-12-09T06:19:24.806Z,13.64
2022-12-09T06:20:28.597Z,13.61
2022-12-09T06:21:32.972Z,13.61
2022-12-09T06:22:35.591Z,13.61
2022-12-09T06:23:41.456Z,13.61
2022-12-09T06:24:45.096Z,13.56
2022-12-09T06:25:47.741Z,13.53
2022-12-09T06:26:54.573Z,13.52
2022-12-09T06:27:57.406Z,13.52
2022-12-09T06:29:02.515Z,13.52
2022-12-09T06:30:06.526Z,13.51
2022-12-09T06:31:10.213Z,13.47
2022-12-09T06:32:13.823Z,13.46
2022-12-09T06:33:37.301Z,13.47
2022-12-09T06:34:39.869Z,13.47
2022-12-09T06:35:42.574Z,13.41
2022-12-09T06:36:46.299Z,13.39
2022-12-09T06:37:51.686Z,13.40
2022-12-09T06:38:55.574Z,13.40
2022-12-09T06:39:58.355Z,13.43
2022-12-09T06:41:06.459Z,13.45
2022-12-09T06:42:10.172Z,13.44
2022-12-09T06:43:12.793Z,13.43
2022-12-09T06:44:23.469Z,13.39
2022-12-09T06:45:26.978Z,13.43
2022-12-09T06:46:30.571Z,13.46
2022-12-09T06:47:33.710Z,13.42
2022-12-09T06:48:37.304Z,13.43
2022-12-09T06:49:39.923Z,13.43
2022-12-09T06:50:44.044Z,13.47
2022-12-09T06:51:47.904Z,13.42
2022-12-09T06:52:50.278Z,13.46
2022-12-09T06:53:54.398Z,13.47
2022-12-09T06:54:58.209Z,13.44
2022-12-09T06:56:09.559Z,13.46
2022-12-09T06:57:15.018Z,13.43
2022-12-09T06:58:17.483Z,13.45
2022-12-09T06:59:22.291Z,13.41
2022-12-09T07:00:25.147Z,13.46
2022-12-09T07:01:28.762Z,13.41
2022-12-09T07:02:36.107Z,13.40
2022-12-09T07:03:41.096Z,13.53
2022-12-09T07:04:44.597Z,13.44
2022-12-09T07:05:47.323Z,13.48
2022-12-09T07:06:51.136Z,13.50
2022-12-09T07:07:54.678Z,13.52
2022-12-09T07:08:59.890Z,13.54
2022-12-09T07:10:04.069Z,13.56
2022-12-09T07:11:06.701Z,13.56
2022-12-09T07:12:10.423Z,13.49
2022-12-09T07:13:12.733Z,13.47
2022-12-09T07:14:18.382Z,13.36
2022-12-09T07:15:23.570Z,13.32
2022-12-09T07:16:26.703Z,13.28
2022-12-09T07:17:30.424Z,13.29
2022-12-09T07:18:32.929Z,13.23
2022-12-09T07:19:36.526Z,13.20
2022-12-09T07:20:39.683Z,13.19
2022-12-09T07:21:43.080Z,13.18
2022-12-09T07:22:45.486Z,13.20
2022-12-09T07:23:49.596Z,13.13
2022-12-09T07:24:52.244Z,13.16
2022-12-09T07:25:59.243Z,13.13
2022-12-09T07:27:07.530Z,13.12
2022-12-09T07:28:14.001Z,13.15
2022-12-09T07:29:17.130Z,13.20
2022-12-09T07:30:20.782Z,13.19
2022-12-09T07:31:28.673Z,13.21
2022-12-09T07:32:31.606Z,13.25
2022-12-09T07:33:35.844Z,13.28
2022-12-09T07:34:38.931Z,13.27
2022-12-09T07:35:42.484Z,13.26
2022-12-09T07:36:46.082Z,13.26
2022-12-09T07:37:49.827Z,13.26
2022-12-09T07:38:55.194Z,13.33
2022-12-09T07:39:58.955Z,13.34
2022-12-09T07:41:06.937Z,13.41
2022-12-09T07:42:10.802Z,13.43
2022-12-09T07:43:13.322Z,13.43
2022-12-09T07:44:16.756Z,13.41
2022-12-09T07:45:20.874Z,13.44
2022-12-09T07:46:27.546Z,13.48
2022-12-09T07:47:31.757Z,13.40
2022-12-09T07:48:34.774Z,13.48
2022-12-09T07:49:38.996Z,13.55
2022-12-09T07:50:41.597Z,13.61
2022-12-09T07:51:45.246Z,13.64
2022-12-09T07:52:48.048Z,13.61
2022-12-09T07:53:52.606Z,13.63
2022-12-09T07:54:59.492Z,13.67
2022-12-09T07:56:04.020Z,13.68
2022-12-09T07:57:08.000Z,13.68
2022-12-09T07:58:10.205Z,13.69
2022-12-09T07:59:15.280Z,13.71
2022-12-09T08:00:18.889Z,13.69
2022-12-09T08:01:24.572Z,13.67
2022-12-09T08:02:29.656Z,13.68
2022-12-09T08:03:31.975Z,13.74
2022-12-09T08:04:37.056Z,13.82
2022-12-09T08:05:48.857Z,13.83
2022-12-09T08:06:52.701Z,13.86
2022-12-09T08:07:56.286Z,13.89
2022-12-09T08:08:59.897Z,13.96
2022-12-09T08:10:04.519Z,13.99
2022-12-09T08:11:08.384Z,13.99
2022-12-09T08:12:13.009Z,14.03
2022-12-09T08:13:15.974Z,14.02
2022-12-09T08:14:19.352Z,14.03
2022-12-09T08:15:22.086Z,14.06
2022-12-09T08:16:26.509Z,14.11
2022-12-09T08:17:32.054Z,13.91
2022-12-09T08:18:35.800Z,14.05
2022-12-09T08:19:39.628Z,14.07
2022-12-09T08:20:42.721Z,13.97
2022-12-09T08:21:51.435Z,14.15
2022-12-09T08:22:57.124Z,14.23
2022-12-09T08:24:03.145Z,14.21
2022-12-09T08:25:08.212Z,14.27
2022-12-09T08:26:13.615Z,14.37
2022-12-09T08:27:17.677Z,14.22
2022-12-09T08:28:20.188Z,14.32
2022-12-09T08:29:24.419Z,14.28
2022-12-09T08:30:27.427Z,14.57
2022-12-09T08:31:33.556Z,14.75
2022-12-09T08:32:42.567Z,14.85
2022-12-09T08:33:46.542Z,15.04
2022-12-09T08:34:49.030Z,15.17
2022-12-09T08:35:52.959Z,15.25
2022-12-09T08:37:01.777Z,15.29
2022-12-09T08:38:04.868Z,15.39
2022-12-09T08:39:09.236Z,15.50
2022-12-09T08:40:14.386Z,15.59
2022-12-09T08:41:19.472Z,15.60
2022-12-09T08:42:23.061Z,15.66
2022-12-09T08:43:25.744Z,15.67
2022-12-09T08:44:29.327Z,15.67
2022-12-09T08:45:37.161Z,15.66
2022-12-09T08:46:43.470Z,15.70
2022-12-09T08:47:48.534Z,15.71
2022-12-09T08:48:51.114Z,15.75
2022-12-09T08:49:54.954Z,15.79
2022-12-09T08:50:58.020Z,15.90
2022-12-09T08:52:01.898Z,15.95
2022-12-09T08:53:04.703Z,15.96
2022-12-09T08:54:08.468Z,16.05
2022-12-09T08:55:10.900Z,16.13
2022-12-09T08:56:16.860Z,16.14
2022-12-09T08:57:24.181Z,16.19
2022-12-09T08:58:28.084Z,16.09
2022-12-09T08:59:31.618Z,16.06
2022-12-09T09:00:34.428Z,16.09
2022-12-09T09:01:38.388Z,16.12
2022-12-09T09:02:41.366Z,16.12
2022-12-09T09:03:47.338Z,16.17
2022-12-09T09:04:51.853Z,16.13
2022-12-09T09:05:55.460Z,16.16
2022-12-09T09:06:59.556Z,16.25
2022-12-09T09:08:02.473Z,16.24
2022-12-09T09:09:07.794Z,16.24
2022-12-09T09:10:11.865Z,16.23
2022-12-09T09:11:18.761Z,16.22
2022-12-09T09:12:22.307Z,16.15
2022-12-09T09:13:25.106Z,16.11
2022-12-09T09:14:28.558Z,16.16
2022-12-09T09:15:32.092Z,16.14
2022-12-09T09:16:36.481Z,16.12
2022-12-09T09:17:39.381Z,16.11
2022-12-09T09:18:43.029Z,16.11
2022-12-09T09:19:48.658Z,16.10
2022-12-09T09:20:53.827Z,16.09
2022-12-09T09:21:57.694Z,16.04
2022-12-09T09:23:03.267Z,16.11
2022-12-09T09:24:11.369Z,16.03
2022-12-09T09:25:15.211Z,16.03
2022-12-09T09:26:22.072Z,16.01
2022-12-09T09:27:25.607Z,16.04
2022-12-09T09:28:31.569Z,16.05
2022-12-09T09:29:35.674Z,16.12
2022-12-09T09:30:38.655Z,16.25
2022-12-09T09:31:43.023Z,16.27
2022-12-09T09:32:45.632Z,16.27
2022-12-09T09:33:50.784Z,16.35
2022-12-09T09:34:56.120Z,16.46
2022-12-09T09:36:01.793Z,16.41
2022-12-09T09:37:08.219Z,16.49
2022-12-09T09:38:12.039Z,16.42
2022-12-09T09:39:16.052Z,16.34
2022-12-09T09:40:19.797Z,16.41
2022-12-09T09:41:36.308Z,16.25
2022-12-09T09:42:49.184Z,16.38
2022-12-09T09:43:52.473Z,16.40
2022-12-09T09:44:57.063Z,16.36
2022-12-09T09:46:01.118Z,16.39
2022-12-09T09:47:17.938Z,16.40
2022-12-09T09:48:25.458Z,16.33
2022-12-09T09:49:36.955Z,16.29
2022-12-09T09:50:50.422Z,16.35
2022-12-09T09:51:54.232Z,16.45
2022-12-09T09:52:58.363Z,16.58
2022-12-09T09:54:05.196Z,16.60
2022-12-09T09:55:16.807Z,16.68
2022-12-09T09:56:29.274Z,16.65
2022-12-09T09:57:41.799Z,16.66
2022-12-09T09:58:51.814Z,16.69
2022-12-09T10:00:10.172Z,16.70
2022-12-09T10:01:16.052Z,16.85
2022-12-09T10:02:28.448Z,16.79
2022-12-09T10:03:44.563Z,16.79
2022-12-09T10:05:03.279Z,16.78
2022-12-09T10:06:20.691Z,16.72
2022-12-09T10:07:29.325Z,16.72
2022-12-09T10:08:44.707Z,16.73
2022-12-09T10:09:58.525Z,16.79
2022-12-09T10:11:17.292Z,16.81
2022-12-09T10:12:31.749Z,16.75
2022-12-09T10:13:49.358Z,16.70
2022-12-09T10:14:58.231Z,16.76
2022-12-09T10:16:13.769Z,16.79
2022-12-09T10:17:27.397Z,16.72
2022-12-09T10:18:38.709Z,16.78
2022-12-09T10:19:46.898Z,16.75
2022-12-09T10:20:50.815Z,16.86
2022-12-09T10:21:57.524Z,16.86
2022-12-09T10:23:04.060Z,16.88
2022-12-09T10:24:20.350Z,16.88
2022-12-09T10:25:26.627Z,16.87
2022-12-09T10:26:31.924Z,16.84
2022-12-09T10:27:39.092Z,16.89
2022-12-09T10:28:47.725Z,16.92
2022-12-09T10:29:57.564Z,16.83
2022-12-09T10:31:01.576Z,16.81
2022-12-09T10:32:04.351Z,16.86
2022-12-09T10:33:08.263Z,16.93
2022-12-09T10:34:14.369Z,16.94
2022-12-09T10:35:20.757Z,17.01
2022-12-09T10:36:33.795Z,17.11
2022-12-09T10:37:40.929Z,17.23
2022-12-09T10:38:44.651Z,17.37
2022-12-09T10:39:47.242Z,17.48
2022-12-09T10:41:01.482Z,17.60
2022-12-09T10:42:22.717Z,17.61
2022-12-09T10:43:37.533Z,17.57
2022-12-09T10:44:41.784Z,17.59
2022-12-09T10:47:26.277Z,17.76
2022-12-09T10:48:33.465Z,17.78
2022-12-09T10:49:37.854Z,17.80
2022-12-09T10:50:42.047Z,17.83
2022-12-09T10:51:50.998Z,17.94
2022-12-09T10:52:55.597Z,17.98
2022-12-09T10:54:01.781Z,17.96
2022-12-09T10:55:04.553Z,17.92
2022-12-09T10:56:08.512Z,17.94
2022-12-09T10:57:26.837Z,17.94
2022-12-09T10:58:31.242Z,17.90
2022-12-09T10:59:36.052Z,17.97
2022-12-09T11:00:39.049Z,17.95
2022-12-09T11:01:54.034Z,18.04
2022-12-09T11:02:58.320Z,17.89
2022-12-09T11:04:13.520Z,17.72
2022-12-09T11:05:27.854Z,17.90
2022-12-09T11:06:38.330Z,17.98
2022-12-09T11:07:49.351Z,17.81
2022-12-09T11:08:57.998Z,17.71
2022-12-09T11:10:09.533Z,17.97
2022-12-09T11:11:12.866Z,17.89
2022-12-09T11:12:21.212Z,17.96
2022-12-09T11:13:43.596Z,17.95
2022-12-09T11:14:52.456Z,17.99
2022-12-09T11:15:59.633Z,18.00
2022-12-09T11:17:16.090Z,17.95
2022-12-09T11:18:21.531Z,18.06
2022-12-09T11:19:35.067Z,17.90
2022-12-09T11:20:39.951Z,18.18
2022-12-09T11:21:43.692Z,18.11
2022-12-09T11:22:48.246Z,18.04
2022-12-09T11:24:02.432Z,18.07
2022-12-09T11:25:24.946Z,17.97
2022-12-09T11:26:37.587Z,17.95
2022-12-09T11:27:43.393Z,18.08
2022-12-09T11:28:46.746Z,18.15
2022-12-09T11:30:07.034Z,18.04
2022-12-09T11:31:29.449Z,18.18
2022-12-09T11:32:34.696Z,18.23
2022-12-09T11:33:42.512Z,18.24
2022-12-09T11:34:47.036Z,18.28
2022-12-09T11:35:58.295Z,18.38
2022-12-09T11:37:02.839Z,18.48
2022-12-09T11:38:17.844Z,18.53
2022-12-09T11:39:26.573Z,18.44
2022-12-09T11:40:29.767Z,18.50
2022-12-09T11:41:55.850Z,18.44
2022-12-09T11:42:59.798Z,18.58
2022-12-09T11:44:04.410Z,18.61
2022-12-09T11:45:18.432Z,18.50
2022-12-09T11:46:25.192Z,18.46
2022-12-09T11:47:50.782Z,18.43
2022-12-09T11:49:00.499Z,18.46
2022-12-09T11:50:14.253Z,18.21
2022-12-09T11:51:23.420Z,18.44
2022-12-09T11:52:29.767Z,18.36
2022-12-09T11:53:34.788Z,18.46
2022-12-09T11:54:46.301Z,18.59
2022-12-09T11:55:53.338Z,18.59
2022-12-09T11:56:59.526Z,18.70
2022-12-09T11:58:05.706Z,18.64
2022-12-09T11:59:14.627Z,18.76
2022-12-09T12:00:24.504Z,18.74
2022-12-09T12:01:38.727Z,18.94
2022-12-09T12:02:47.501Z,18.87
2022-12-09T12:03:55.075Z,18.76
2022-12-09T12:05:02.858Z,18.79
2022-12-09T12:06:09.883Z,18.83
2022-12-09T12:07:16.218Z,18.85
2022-12-09T12:08:26.654Z,18.73
2022-12-09T12:09:37.126Z,18.76
2022-12-09T12:10:45.699Z,18.64
2022-12-09T12:11:58.976Z,18.79
2022-12-09T12:13:11.038Z,18.82
2022-12-09T12:14:18.745Z,18.82
2022-12-09T12:15:26.759Z,18.82
2022-12-09T12:16:39.486Z,18.89
2022-12-09T12:17:46.024Z,18.92
2022-12-09T12:18:58.540Z,18.74
2022-12-09T12:20:02.514Z,18.71
2022-12-09T12:21:43.138Z,18.66
2022-12-09T12:23:21.653Z,18.98
2022-12-09T12:24:46.311Z,18.75
2022-12-09T12:26:02.317Z,18.71
2022-12-09T12:27:26.021Z,18.82
2022-12-09T12:28:56.627Z,18.82
2022-12-09T12:30:05.914Z,18.75
2022-12-09T12:31:23.332Z,18.67
2022-12-09T12:32:38.780Z,18.72
2022-12-09T12:35:45.596Z,18.71
2022-12-09T12:36:57.354Z,18.64
2022-12-09T12:38:13.620Z,18.80
2022-12-09T12:39:29.888Z,18.85
2022-12-09T12:40:41.663Z,18.90
2022-12-09T12:41:53.467Z,18.88
2022-12-09T12:43:24.401Z,18.86
2022-12-09T12:45:03.969Z,18.82
2022-12-09T12:46:27.129Z,18.79
2022-12-09T12:47:39.370Z,18.64
2022-12-09T12:48:54.363Z,18.70
2022-12-09T12:50:25.255Z,18.71
2022-12-09T12:51:38.050Z,18.82
2022-12-09T12:52:56.231Z,18.81
2022-12-09T12:54:15.376Z,18.69
2022-12-09T12:55:28.922Z,18.76
2022-12-09T12:56:37.207Z,18.70
2022-12-09T12:57:48.080Z,18.80
2022-12-09T12:59:03.753Z,18.87
2022-12-09T13:00:12.296Z,18.85
2022-12-09T13:01:25.604Z,18.72
2022-12-09T13:02:41.452Z,18.64
2022-12-09T13:04:02.123Z,18.48
2022-12-09T13:05:13.144Z,18.40
2022-12-09T13:06:22.231Z,18.31
2022-12-09T13:07:35.102Z,18.26
2022-12-09T13:08:45.587Z,18.27
2022-12-09T13:09:54.135Z,18.14
2022-12-09T13:11:00.487Z,18.08
2022-12-09T13:12:10.948Z,18.04
2022-12-09T13:13:21.150Z,18.00
2022-12-09T13:14:32.167Z,17.95
2022-12-09T13:15:39.261Z,17.91
2022-12-09T13:16:44.889Z,18.07
2022-12-09T13:17:49.909Z,18.35
2022-12-09T13:18:53.792Z,18.56
2022-12-09T13:20:02.263Z,18.73
2022-12-09T13:21:06.565Z,18.96
2022-12-09T13:22:18.276Z,19.10
2022-12-09T13:23:34.465Z,19.16
2022-12-09T13:24:44.439Z,19.33
2022-12-09T13:25:54.685Z,19.40
2022-12-09T13:27:03.738Z,19.34
2022-12-09T13:28:12.047Z,19.30
2022-12-09T13:29:30.260Z,19.15
2022-12-09T13:30:40.792Z,19.11
2022-12-09T13:31:55.750Z,19.03
2022-12-09T13:33:28.610Z,19.01
2022-12-09T13:34:38.603Z,18.99
2022-12-09T13:35:45.150Z,18.93
2022-12-09T13:36:49.899Z,19.05
2022-12-09T13:37:56.849Z,19.07
2022-12-09T13:39:00.072Z,19.10
2022-12-09T13:40:02.888Z,19.12
2022-12-09T13:41:59.178Z,19.29
2022-12-09T13:43:11.526Z,19.25
2022-12-09T13:44:19.073Z,19.33
2022-12-09T13:45:28.850Z,19.28
2022-12-09T13:46:33.636Z,19.33
2022-12-09T13:47:37.708Z,19.32
2022-12-09T13:48:44.623Z,19.22
2022-12-09T13:49:57.265Z,19.18
2022-12-09T13:51:01.401Z,19.22
2022-12-09T13:52:04.803Z,19.22
2022-12-09T13:53:25.561Z,19.17
2022-12-09T13:54:30.869Z,19.20
2022-12-09T13:55:40.095Z,19.32
2022-12-09T13:56:44.353Z,19.45
2022-12-09T13:57:53.374Z,19.54
2022-12-09T13:59:39.937Z,19.49
2022-12-09T14:01:02.813Z,19.42
2022-12-09T14:02:22.796Z,19.38
2022-12-09T14:03:31.708Z,19.27
2022-12-09T14:04:37.589Z,19.23
2022-12-09T14:05:40.100Z,19.17
2022-12-09T14:06:54.160Z,19.18
2022-12-09T14:08:02.951Z,19.19
2022-12-09T14:09:20.761Z,19.05
2022-12-09T14:10:38.208Z,19.00
2022-12-09T14:11:47.523Z,18.96
2022-12-09T14:13:20.399Z,19.01
2022-12-09T14:14:54.548Z,19.01
2022-12-09T14:16:35.327Z,19.03
2022-12-09T14:18:04.240Z,19.07
2022-12-09T14:19:46.410Z,19.07
2022-12-09T14:21:24.507Z,19.16
2022-12-09T14:22:36.544Z,19.16
2022-12-09T14:23:39.737Z,19.16
2022-12-09T14:24:43.246Z,19.06
2022-12-09T14:26:09.585Z,19.10
2022-12-09T14:27:19.691Z,19.26